Time;durP1;ratioP1;P1;durP2;ratioP2;P2;SDS_P1;SDS_P2;PMS_P1;PMS_P2;Temp;Humidity;BMP_temperature;BMP_pressure;BME280_temperature;BME280_humidity;BME280_pressure;Samples;Min_cycle;Max_cycle;Signal;HPM_P1;HPM_P2
2022/03/12 05:19:13;;;;;;;3.33;0.38;;;31.90;69.50;;;;;;4934784;23;20055;-80
2022/03/12 05:21:41;;;;;;;2.65;0.60;;;32.20;68.50;;;;;;4919001;29;20058;-80
2022/03/12 05:24:10;;;;;;;3.40;0.50;;;32.80;68.40;;;;;;4929478;29;20036;-81
2022/03/12 05:26:38;;;;;;;4.47;0.50;;;33.00;66.50;;;;;;4916043;29;20115;-80
2022/03/12 05:29:05;;;;;;;3.20;0.60;;;33.50;65.90;;;;;;4923027;29;20026;-81
2022/03/12 05:31:33;;;;;;;1.88;0.45;;;33.60;65.50;;;;;;4920346;29;20031;-80
2022/03/12 05:34:00;;;;;;;3.10;0.75;;;32.90;65.90;;;;;;4937442;29;20020;-79
2022/03/12 05:36:28;;;;;;;4.03;0.50;;;33.20;66.00;;;;;;4937626;29;20042;-80
2022/03/12 05:38:56;;;;;;;3.90;0.60;;;32.90;65.90;;;;;;4936766;29;20032;-81
2022/03/12 05:41:23;;;;;;;4.82;0.95;;;32.40;67.10;;;;;;4936824;29;20365;-80
2022/03/12 05:43:51;;;;;;;3.67;0.70;;;32.00;67.60;;;;;;4936304;29;20042;-81
2022/03/12 05:46:21;;;;;;;2.92;0.55;;;32.30;68.90;;;;;;4937054;29;20145;-81
2022/03/12 05:48:49;;;;;;;2.75;0.50;;;32.60;67.30;;;;;;4936425;29;20157;-79
2022/03/12 05:51:17;;;;;;;3.03;0.50;;;33.40;67.60;;;;;;4936842;29;20028;-80
2022/03/12 05:53:45;;;;;;;4.28;0.90;;;33.40;65.10;;;;;;4936648;29;20028;-79
2022/03/12 05:56:12;;;;;;;3.75;0.35;;;33.10;65.40;;;;;;4936857;29;20106;-80
2022/03/12 05:58:40;;;;;;;5.30;0.60;;;33.20;65.60;;;;;;4935860;29;20499;-79
2022/03/12 06:01:08;;;;;;;1.92;0.45;;;33.30;66.50;;;;;;4936442;29;20032;-80
2022/03/12 06:03:36;;;;;;;4.53;0.43;;;33.50;65.10;;;;;;4935373;29;20615;-79
2022/03/12 06:06:03;;;;;;;3.30;1.13;;;33.10;64.70;;;;;;4934884;29;20024;-78
2022/03/12 06:08:33;;;;;;;2.17;0.50;;;32.40;66.20;;;;;;4934567;29;20027;-81
2022/03/12 06:11:01;;;;;;;5.03;0.40;;;31.80;67.90;;;;;;4935339;29;20035;-80
2022/03/12 06:13:29;;;;;;;2.90;0.70;;;31.70;68.10;;;;;;4918050;29;20046;-80
2022/03/12 06:16:02;;;;;;;2.05;0.70;;;32.30;66.70;;;;;;4935877;29;20027;-79
2022/03/12 06:18:36;;;;;;;5.03;0.50;;;31.70;67.20;;;;;;4935949;29;20027;-79
2022/03/12 06:21:05;;;;;;;2.33;0.50;;;31.50;67.70;;;;;;4936211;29;20047;-80
2022/03/12 06:23:33;;;;;;;2.35;0.40;;;31.90;66.80;;;;;;4934915;29;20032;-79
2022/03/12 06:26:02;;;;;;;2.88;0.50;;;32.30;66.60;;;;;;4933333;29;20070;-79
2022/03/12 06:28:32;;;;;;;1.95;0.40;;;32.50;66.30;;;;;;4931566;29;20641;-79
2022/03/12 06:31:03;;;;;;;3.60;0.40;;;32.70;65.80;;;;;;4935849;29;20031;-78
2022/03/12 06:33:31;;;;;;;2.87;0.33;;;32.90;66.20;;;;;;4932392;29;20098;-79
2022/03/12 06:36:01;;;;;;;3.65;0.60;;;33.10;65.70;;;;;;4935194;29;20024;-78
2022/03/12 06:38:32;;;;;;;4.50;0.90;;;32.80;65.50;;;;;;4917689;29;20031;-79
2022/03/12 06:40:59;;;;;;;2.65;0.68;;;32.50;66.10;;;;;;4935367;29;20099;-78
2022/03/12 06:43:28;;;;;;;3.63;0.90;;;32.20;66.70;;;;;;4935412;29;20611;-77
2022/03/12 06:46:01;;;;;;;2.47;0.70;;;32.30;66.40;;;;;;4926542;29;20047;-80
2022/03/12 06:48:32;;;;;;;2.92;0.82;;;32.10;65.70;;;;;;4918361;29;20540;-77
2022/03/12 06:50:59;;;;;;;2.67;0.55;;;31.70;66.20;;;;;;4917846;29;20036;-77
2022/03/12 06:53:27;;;;;;;4.38;1.00;;;31.20;66.30;;;;;;4935236;29;20024;-80
2022/03/12 06:55:54;;;;;;;2.42;0.50;;;30.40;67.60;;;;;;4935195;29;20016;-78
2022/03/12 06:58:25;;;;;;;2.25;0.50;;;29.50;70.10;;;;;;4934805;29;20087;-80
2022/03/12 07:00:52;;;;;;;7.20;1.95;;;28.80;71.10;;;;;;4898758;29;20436;-77
2022/03/12 07:03:20;;;;;;;4.43;0.73;;;28.20;73.80;;;;;;4916248;29;20067;-78
2022/03/12 07:05:47;;;;;;;2.55;0.60;;;27.80;72.60;;;;;;4917051;29;20105;-76
2022/03/12 07:08:15;;;;;;;3.35;0.50;;;27.70;73.20;;;;;;4934849;29;20059;-70
2022/03/12 07:10:43;;;;;;;2.90;0.40;;;27.40;73.40;;;;;;4934590;29;20393;-71
2022/03/12 07:13:10;;;;;;;2.20;0.55;;;27.50;73.50;;;;;;4934541;29;20020;-72
2022/03/12 07:15:37;;;;;;;3.97;0.70;;;27.40;72.90;;;;;;4934598;29;20058;-72
2022/03/12 07:18:05;;;;;;;2.33;0.35;;;27.40;72.90;;;;;;4934524;29;20024;-73
2022/03/12 07:20:32;;;;;;;2.90;0.95;;;27.10;73.20;;;;;;4934290;29;20048;-73
2022/03/12 07:23:00;;;;;;;4.38;0.60;;;27.00;73.20;;;;;;4902254;29;20024;-75
2022/03/12 07:25:28;;;;;;;2.08;0.32;;;27.30;73.20;;;;;;4915626;29;20090;-81
2022/03/12 07:27:56;;;;;;;2.60;0.50;;;27.50;71.80;;;;;;4933580;29;20106;-76
2022/03/12 07:30:27;;;;;;;3.88;0.50;;;27.30;71.60;;;;;;4917629;29;20039;-76
2022/03/12 07:32:54;;;;;;;2.78;0.68;;;26.80;73.10;;;;;;4934920;29;20168;-80
2022/03/12 07:35:21;;;;;;;2.17;0.50;;;26.40;73.80;;;;;;4934542;29;20539;-79
2022/03/12 07:37:49;;;;;;;2.70;0.70;;;25.90;75.30;;;;;;4916897;29;20038;-78
2022/03/12 07:40:17;;;;;;;3.10;0.80;;;25.60;76.10;;;;;;4933977;29;20051;-76
2022/03/12 07:42:46;;;;;;;4.68;1.33;;;25.30;76.30;;;;;;4934456;29;20036;-74
2022/03/12 07:45:15;;;;;;;4.53;1.08;;;25.10;77.90;;;;;;4934637;29;20035;-76
2022/03/12 07:47:42;;;;;;;5.00;0.80;;;24.80;78.50;;;;;;4917040;29;20023;-74
2022/03/12 07:50:10;;;;;;;4.30;0.93;;;24.50;79.20;;;;;;4916933;29;20083;-77
2022/03/12 07:52:38;;;;;;;3.60;1.52;;;24.40;79.60;;;;;;4916883;29;20035;-75
2022/03/12 07:55:07;;;;;;;2.15;0.50;;;24.20;79.70;;;;;;4934040;29;20122;-76
2022/03/12 07:57:34;;;;;;;1.63;0.70;;;24.10;80.10;;;;;;4922596;29;20028;-74
2022/03/12 08:00:03;;;;;;;3.60;0.98;;;23.90;80.00;;;;;;4926502;29;20027;-73
2022/03/12 08:02:31;;;;;;;3.40;1.02;;;23.80;80.40;;;;;;4916633;29;20535;-76
2022/03/12 08:04:59;;;;;;;5.95;0.90;;;23.80;80.70;;;;;;4916891;29;20039;-77
2022/03/12 08:07:28;;;;;;;1.88;0.60;;;23.80;81.20;;;;;;4934026;29;20091;-78
2022/03/12 08:09:56;;;;;;;3.92;1.40;;;23.70;82.60;;;;;;4933725;29;20040;-79
2022/03/12 08:12:25;;;;;;;3.58;1.25;;;23.60;82.10;;;;;;4933992;29;20027;-83
2022/03/12 08:14:54;;;;;;;5.15;2.50;;;23.50;82.80;;;;;;4935566;29;20024;-80
2022/03/12 08:17:23;;;;;;;3.13;1.30;;;23.50;83.30;;;;;;4933733;29;20035;-79
2022/03/12 08:19:54;;;;;;;8.05;3.10;;;23.50;82.60;;;;;;4916922;29;20035;-80
2022/03/12 08:22:21;;;;;;;3.15;1.70;;;23.40;82.60;;;;;;4906302;29;20721;-79
2022/03/12 08:24:49;;;;;;;4.57;1.10;;;23.30;82.80;;;;;;4914749;29;20058;-79
2022/03/12 08:27:35;;;;;;;2.65;0.70;;;23.20;83.60;;;;;;4910923;29;20024;-83
2022/03/12 08:30:08;;;;;;;4.07;1.70;;;23.20;83.30;;;;;;4934041;29;20035;-82
2022/03/12 08:32:36;;;;;;;5.97;2.92;;;23.20;83.70;;;;;;4933998;29;20111;-83
2022/03/12 08:35:05;;;;;;;12.55;5.65;;;23.10;83.30;;;;;;4916564;29;20432;-80
2022/03/12 08:37:34;;;;;;;6.95;4.82;;;23.10;83.30;;;;;;4933332;29;20024;-79
2022/03/12 08:40:06;;;;;;;7.68;2.58;;;23.10;83.30;;;;;;4933067;29;20028;-75
2022/03/12 08:42:35;;;;;;;6.20;3.78;;;23.00;82.90;;;;;;4922308;29;20027;-80
2022/03/12 08:45:03;;;;;;;7.95;3.08;;;23.00;83.70;;;;;;4914804;29;20072;-79
2022/03/12 08:47:30;;;;;;;11.65;6.35;;;23.00;83.70;;;;;;4917573;29;20529;-79
2022/03/12 08:49:57;;;;;;;9.07;3.75;;;23.00;84.00;;;;;;4930449;29;20024;-79
2022/03/12 08:52:25;;;;;;;4.40;1.77;;;23.00;84.40;;;;;;4937403;29;20035;-79
2022/03/12 08:54:52;;;;;;;3.75;1.38;;;23.00;85.10;;;;;;4930848;29;20032;-78
2022/03/12 08:57:21;;;;;;;5.50;3.72;;;22.90;85.70;;;;;;4909822;29;20020;-78
2022/03/12 08:59:48;;;;;;;12.55;7.00;;;23.00;86.10;;;;;;4926801;29;20036;-79
2022/03/12 09:02:15;;;;;;;8.60;4.45;;;22.90;86.60;;;;;;4929776;29;20023;-77
2022/03/12 09:04:43;;;;;;;9.00;4.90;;;22.90;88.00;;;;;;4926955;29;20116;-76
2022/03/12 09:07:10;;;;;;;8.02;2.65;;;22.90;88.00;;;;;;4909426;29;20398;-76
2022/03/12 09:09:38;;;;;;;7.38;2.67;;;22.90;88.70;;;;;;4926816;29;20032;-77
2022/03/12 09:12:06;;;;;;;5.80;2.25;;;22.90;88.20;;;;;;4928067;29;20020;-75
2022/03/12 09:14:36;;;;;;;9.88;2.25;;;22.80;88.10;;;;;;4926220;29;20536;-75
2022/03/12 09:17:04;;;;;;;6.03;3.28;;;22.80;88.90;;;;;;4926778;29;20376;-75
2022/03/12 09:19:32;;;;;;;10.48;5.80;;;22.80;89.00;;;;;;4929580;29;20028;-77
2022/03/12 09:22:03;;;;;;;6.50;2.90;;;22.70;89.40;;;;;;4907908;29;20503;-77
2022/03/12 09:24:31;;;;;;;6.43;2.35;;;22.70;89.90;;;;;;4928131;29;20484;-76
2022/03/12 09:26:59;;;;;;;7.47;2.25;;;22.60;90.10;;;;;;4909679;29;20030;-74
2022/03/12 09:29:27;;;;;;;9.23;3.45;;;22.60;89.70;;;;;;4926580;29;20047;-75
2022/03/12 09:31:54;;;;;;;9.82;3.97;;;22.60;89.60;;;;;;4926397;29;20097;-74
2022/03/12 09:34:22;;;;;;;6.05;2.20;;;22.60;90.10;;;;;;4926613;29;20023;-77
2022/03/12 09:36:50;;;;;;;5.32;1.20;;;22.60;90.10;;;;;;4927578;29;20027;-80
2022/03/12 09:39:17;;;;;;;7.90;2.30;;;22.60;90.10;;;;;;4907597;29;20028;-74
2022/03/12 09:41:47;;;;;;;4.55;1.65;;;22.60;90.10;;;;;;4925724;29;20038;-74
2022/03/12 09:44:19;;;;;;;8.30;1.60;;;22.60;90.30;;;;;;4925421;29;20111;-80
2022/03/12 09:46:46;;;;;;;4.25;1.60;;;22.60;90.30;;;;;;4908878;29;20042;-74
2022/03/12 09:49:14;;;;;;;6.00;3.00;;;22.50;90.50;;;;;;4926803;29;20028;-73
2022/03/12 09:51:42;;;;;;;8.60;3.42;;;22.60;90.40;;;;;;4923937;29;20019;-78
2022/03/12 09:54:11;;;;;;;6.78;2.55;;;22.50;90.80;;;;;;4926791;29;20020;-77
2022/03/12 09:56:39;;;;;;;9.63;4.05;;;22.50;91.10;;;;;;4926534;29;20472;-78
2022/03/12 09:59:07;;;;;;;6.25;2.85;;;22.60;90.90;;;;;;4925185;29;20039;-76
2022/03/12 10:01:34;;;;;;;7.30;2.78;;;22.50;90.90;;;;;;4924857;29;20428;-76
2022/03/12 10:04:02;;;;;;;6.43;2.20;;;22.50;91.10;;;;;;4925930;29;20067;-75
2022/03/12 10:06:31;;;;;;;7.03;2.25;;;22.50;91.30;;;;;;4909980;29;20100;-76
2022/03/12 10:08:59;;;;;;;8.27;2.10;;;22.50;91.40;;;;;;4928123;29;20171;-75
2022/03/12 10:11:27;;;;;;;9.13;2.10;;;22.40;91.80;;;;;;4907672;29;20496;-77
2022/03/12 10:13:57;;;;;;;5.40;1.30;;;22.40;91.60;;;;;;4924668;29;20031;-78
2022/03/12 10:16:25;;;;;;;5.07;1.20;;;22.40;92.00;;;;;;4908361;29;20396;-76
2022/03/12 10:18:53;;;;;;;8.25;1.95;;;22.40;92.20;;;;;;4926418;29;20448;-80
2022/03/12 10:21:24;;;;;;;8.27;3.75;;;22.40;92.20;;;;;;4906905;29;20557;-80
2022/03/12 10:23:51;;;;;;;10.10;4.03;;;22.30;92.20;;;;;;4907077;29;20040;-76
2022/03/12 10:26:18;;;;;;;6.57;4.32;;;22.30;92.80;;;;;;4924473;29;20021;-74
2022/03/12 10:28:46;;;;;;;8.00;3.08;;;22.30;92.80;;;;;;4925708;29;20035;-76
2022/03/12 10:31:18;;;;;;;10.60;3.30;;;22.30;93.00;;;;;;4926178;29;20444;-81
2022/03/12 10:33:46;;;;;;;8.82;2.85;;;22.20;92.90;;;;;;4909757;29;20095;-78
2022/03/12 10:36:18;;;;;;;6.88;2.33;;;22.20;93.20;;;;;;4929477;29;20031;-75
2022/03/12 10:38:50;;;;;;;5.30;1.70;;;22.20;93.40;;;;;;4927679;29;20570;-76
2022/03/12 10:41:18;;;;;;;6.07;1.85;;;22.10;93.80;;;;;;4924993;29;20030;-76
2022/03/12 10:43:51;;;;;;;7.88;1.65;;;22.10;93.50;;;;;;4926495;29;20115;-72
2022/03/12 10:46:24;;;;;;;6.63;1.42;;;22.00;93.60;;;;;;4907486;29;20127;-78
2022/03/12 10:48:57;;;;;;;7.43;2.13;;;22.00;94.30;;;;;;4908359;29;20031;-76
2022/03/12 10:51:37;;;;;;;11.15;2.15;;;21.90;94.30;;;;;;4925400;29;20020;-83
2022/03/12 10:54:15;;;;;;;7.68;1.90;;;21.90;94.50;;;;;;4926325;29;20024;-76
2022/03/12 10:56:48;;;;;;;11.38;2.63;;;21.80;94.60;;;;;;4925273;29;20532;-80
2022/03/12 10:59:23;;;;;;;13.57;2.40;;;21.80;94.80;;;;;;4908946;29;20498;-77
2022/03/12 11:01:56;;;;;;;7.72;1.45;;;21.80;94.90;;;;;;4925771;29;20121;-77
2022/03/12 11:04:27;;;;;;;7.32;1.52;;;21.70;94.90;;;;;;4908052;29;20040;-76
2022/03/12 11:06:57;;;;;;;6.57;1.77;;;21.70;95.00;;;;;;4924275;29;20016;-80
2022/03/12 11:09:39;;;;;;;14.52;2.40;;;21.60;95.00;;;;;;4909682;29;20020;-80
2022/03/12 11:12:31;;;;;;;8.23;1.90;;;21.50;95.50;;;;;;4907266;29;20028;-80
2022/03/12 11:15:16;;;;;;;8.88;1.98;;;21.50;95.70;;;;;;4924259;29;20381;-75
2022/03/12 11:17:54;;;;;;;29.35;5.63;;;21.50;95.70;;;;;;4924749;29;20020;-82
2022/03/12 11:20:28;;;;;;;7.80;1.83;;;21.40;95.90;;;;;;4923163;29;20064;-81
2022/03/12 11:23:12;;;;;;;13.35;3.00;;;21.40;96.00;;;;;;4909107;29;20024;-81
2022/03/12 11:26:05;;;;;;;12.00;2.42;;;21.30;96.20;;;;;;4926865;29;20388;-80
2022/03/12 11:28:37;;;;;;;6.22;1.67;;;21.30;96.10;;;;;;4923428;29;20020;-81
2022/03/12 11:31:07;;;;;;;7.45;1.85;;;21.20;96.10;;;;;;4908985;29;20031;-74
2022/03/12 11:33:35;;;;;;;7.68;2.38;;;21.20;96.50;;;;;;4923779;29;20553;-74
2022/03/12 11:36:09;;;;;;;9.18;1.70;;;21.10;96.90;;;;;;4924623;29;20016;-77
2022/03/12 11:38:37;;;;;;;7.88;2.17;;;21.10;97.20;;;;;;4925437;29;20030;-74
2022/03/12 11:41:10;;;;;;;5.78;2.08;;;21.10;97.30;;;;;;4924920;29;20020;-75
2022/03/12 11:43:42;;;;;;;9.85;2.20;;;21.00;97.50;;;;;;4923181;29;20035;-76
2022/03/12 11:46:12;;;;;;;9.80;2.35;;;20.90;97.80;;;;;;4924047;29;20035;-77
2022/03/12 11:48:41;;;;;;;11.27;3.10;;;20.90;98.00;;;;;;4928408;29;20020;-84
2022/03/12 11:51:23;;;;;;;7.40;1.63;;;20.90;98.20;;;;;;4934696;29;20020;-76
2022/03/12 11:53:53;;;;;;;8.93;2.08;;;20.80;98.40;;;;;;4934660;29;20022;-75
2022/03/12 11:56:23;;;;;;;10.80;2.20;;;20.80;98.60;;;;;;4933310;29;20035;-75
2022/03/12 11:58:50;;;;;;;9.52;2.03;;;20.70;98.80;;;;;;4933186;29;20084;-75
2022/03/12 12:01:20;;;;;;;10.05;2.80;;;20.70;98.80;;;;;;4915644;29;20477;-74
2022/03/12 12:03:49;;;;;;;8.13;2.03;;;20.70;99.10;;;;;;4915797;29;20040;-74
2022/03/12 12:06:18;;;;;;;10.52;3.20;;;20.60;99.20;;;;;;4915717;29;20519;-73
2022/03/12 12:08:48;;;;;;;12.10;4.00;;;20.60;99.40;;;;;;4915724;29;20032;-77
2022/03/12 12:11:17;;;;;;;17.83;4.10;;;20.50;99.60;;;;;;4915562;29;20043;-76
2022/03/12 12:13:45;;;;;;;12.02;3.25;;;20.50;99.60;;;;;;4915618;29;20039;-74
2022/03/12 12:16:15;;;;;;;7.22;3.33;;;20.40;99.80;;;;;;4915537;29;20028;-75
2022/03/12 12:18:43;;;;;;;13.57;2.33;;;20.40;99.90;;;;;;4914603;29;20024;-76
2022/03/12 12:21:18;;;;;;;11.85;6.90;;;20.40;99.90;;;;;;4913880;29;20044;-76
2022/03/12 12:23:47;;;;;;;7.60;2.85;;;20.30;99.80;;;;;;4914898;29;20477;-75
2022/03/12 12:26:15;;;;;;;9.90;2.60;;;20.30;99.90;;;;;;4916211;29;20071;-78
2022/03/12 12:28:50;;;;;;;10.85;2.53;;;20.30;99.90;;;;;;4915957;29;20044;-74
2022/03/12 12:31:27;;;;;;;9.77;2.38;;;20.30;99.90;;;;;;4897579;29;20384;-74
2022/03/12 12:34:00;;;;;;;10.77;2.30;;;20.30;99.90;;;;;;4915963;29;20548;-73
2022/03/12 12:36:27;;;;;;;14.05;5.28;;;20.30;99.90;;;;;;4915535;29;20035;-72
2022/03/12 12:39:08;;;;;;;8.65;3.13;;;20.20;99.90;;;;;;4918195;29;20035;-75
2022/03/12 12:41:58;;;;;;;11.02;3.20;;;20.20;99.90;;;;;;4915783;29;20028;-77
2022/03/12 12:44:44;;;;;;;5.57;2.80;;;20.20;99.90;;;;;;4915434;29;20044;-73
2022/03/12 12:47:18;;;;;;;13.85;3.10;;;20.20;99.90;;;;;;4915382;29;20036;-73
2022/03/12 12:50:06;;;;;;;9.68;2.20;;;20.20;99.90;;;;;;4914925;29;20084;-76
2022/03/12 12:52:34;;;;;;;10.27;2.30;;;20.20;99.90;;;;;;4915604;29;20020;-74
2022/03/12 12:55:06;;;;;;;9.55;2.45;;;20.10;99.90;;;;;;4915556;29;20021;-74
2022/03/12 12:57:42;;;;;;;5.40;2.15;;;20.10;99.90;;;;;;4915304;29;20035;-76
2022/03/12 13:00:37;;;;;;;13.93;2.67;;;20.10;99.90;;;;;;4898744;29;20024;-76
2022/03/12 13:03:19;;;;;;;11.75;2.58;;;20.00;99.90;;;;;;4889425;29;20032;-76
2022/03/12 13:05:59;;;;;;;9.73;2.38;;;20.00;99.90;;;;;;4914751;29;20040;-75
2022/03/12 13:08:43;;;;;;;18.08;4.25;;;20.00;99.90;;;;;;4914565;29;20020;-74
2022/03/12 13:11:28;;;;;;;11.63;2.13;;;20.00;99.90;;;;;;4915007;29;20024;-74
2022/03/12 13:13:58;;;;;;;6.82;2.95;;;20.00;99.90;;;;;;4915212;29;20075;-75
2022/03/12 13:16:25;;;;;;;7.70;2.30;;;19.90;99.90;;;;;;4915115;29;20028;-76
2022/03/12 13:18:53;;;;;;;12.45;3.40;;;19.90;99.90;;;;;;4914840;29;20028;-74
2022/03/12 13:21:57;;;;;;;6.43;2.15;;;19.80;99.90;;;;;;4914660;29;20084;-74
2022/03/12 13:24:24;;;;;;;7.38;2.03;;;19.80;99.90;;;;;;4914523;29;20437;-73
2022/03/12 13:26:51;;;;;;;12.10;3.38;;;19.80;99.90;;;;;;4915014;29;20027;-75
2022/03/12 13:29:22;;;;;;;11.10;2.90;;;19.70;99.90;;;;;;4914843;29;20048;-73
2022/03/12 13:31:50;;;;;;;8.32;2.78;;;19.70;99.90;;;;;;4915518;29;20024;-75
2022/03/12 13:34:17;;;;;;;9.75;2.53;;;19.70;99.90;;;;;;4901918;29;20027;-77
2022/03/12 13:36:54;;;;;;;10.13;2.55;;;19.70;99.90;;;;;;4900774;29;20392;-77
2022/03/12 13:39:23;;;;;;;6.85;2.40;;;19.60;99.90;;;;;;4918432;29;20095;-76
2022/03/12 13:41:52;;;;;;;11.65;2.95;;;19.60;99.90;;;;;;4918367;29;20028;-76
2022/03/12 13:44:20;;;;;;;10.68;2.60;;;19.50;99.90;;;;;;4917999;29;20079;-77
2022/03/12 13:46:50;;;;;;;11.05;2.60;;;19.50;99.90;;;;;;4918492;29;20044;-76
2022/03/12 13:49:20;;;;;;;13.63;2.72;;;19.50;99.90;;;;;;4918455;29;20032;-77
2022/03/12 13:51:51;;;;;;;5.93;1.98;;;19.40;99.90;;;;;;4918262;29;20087;-77
2022/03/12 13:54:20;;;;;;;10.18;2.85;;;19.40;99.90;;;;;;4918214;29;20024;-73
2022/03/12 13:56:49;;;;;;;8.27;2.00;;;19.40;99.90;;;;;;4917790;29;20024;-75
2022/03/12 13:59:30;;;;;;;7.95;2.42;;;19.40;99.90;;;;;;4917667;29;20056;-77
2022/03/12 14:02:00;;;;;;;13.20;3.30;;;19.40;99.90;;;;;;4917760;29;20473;-77
2022/03/12 14:04:30;;;;;;;10.60;3.10;;;19.40;99.90;;;;;;4917534;29;20044;-76
2022/03/12 14:06:58;;;;;;;8.60;3.40;;;19.30;99.90;;;;;;4917658;29;20023;-76
2022/03/12 14:09:26;;;;;;;10.50;3.53;;;19.30;99.90;;;;;;4900486;29;20032;-76
2022/03/12 14:11:55;;;;;;;17.25;3.92;;;19.30;99.90;;;;;;4917282;29;20020;-77
2022/03/12 14:14:25;;;;;;;10.00;2.58;;;19.20;99.90;;;;;;4917993;29;20028;-77
2022/03/12 14:16:58;;;;;;;6.93;3.05;;;19.20;99.90;;;;;;4917680;29;20035;-77
2022/03/12 14:19:27;;;;;;;9.63;3.95;;;19.20;99.90;;;;;;4917708;29;20024;-76
2022/03/12 14:21:57;;;;;;;14.93;2.92;;;19.20;99.90;;;;;;4917742;29;20397;-76
2022/03/12 14:24:41;;;;;;;8.15;2.80;;;19.20;99.90;;;;;;4917540;29;20064;-76
2022/03/12 14:27:13;;;;;;;15.23;3.10;;;19.10;99.90;;;;;;4917478;29;20468;-76
2022/03/12 14:29:45;;;;;;;9.45;3.05;;;19.10;99.90;;;;;;4917522;29;20433;-75
2022/03/12 14:32:17;;;;;;;12.00;2.83;;;19.10;99.90;;;;;;4917968;29;20079;-76
2022/03/12 14:34:46;;;;;;;12.25;3.42;;;19.10;99.90;;;;;;4917464;29;20027;-77
2022/03/12 14:37:14;;;;;;;10.60;4.07;;;19.10;99.90;;;;;;4900525;29;20036;-77
2022/03/12 14:39:43;;;;;;;9.43;3.00;;;19.00;99.90;;;;;;4917373;29;20035;-75
2022/03/12 14:42:12;;;;;;;7.15;3.83;;;19.00;99.90;;;;;;4917302;29;20507;-77
2022/03/12 14:44:41;;;;;;;13.82;3.83;;;19.00;99.90;;;;;;4916506;29;20060;-76
2022/03/12 14:47:13;;;;;;;8.88;3.28;;;18.90;99.90;;;;;;4917406;29;20111;-76
2022/03/12 14:50:09;;;;;;;13.30;4.15;;;18.90;99.90;;;;;;4917318;29;20030;-76
2022/03/12 14:52:38;;;;;;;8.25;3.25;;;18.90;99.90;;;;;;4914894;29;20511;-77
2022/03/12 14:55:11;;;;;;;11.10;4.30;;;18.80;99.90;;;;;;4900273;29;20024;-76
2022/03/12 14:57:39;;;;;;;10.63;4.13;;;18.90;99.90;;;;;;4916833;29;20107;-73
2022/03/12 15:00:13;;;;;;;8.38;3.35;;;18.90;99.90;;;;;;4917171;29;20036;-74
2022/03/12 15:02:41;;;;;;;10.38;3.72;;;18.80;99.90;;;;;;4917244;29;20158;-77
2022/03/12 15:05:11;;;;;;;9.00;3.40;;;18.90;99.90;;;;;;4917014;29;20466;-77
2022/03/12 15:07:52;;;;;;;11.70;3.47;;;19.00;99.90;;;;;;4916612;29;20044;-75
2022/03/12 15:10:28;;;;;;;9.93;3.70;;;18.90;99.90;;;;;;4916560;29;20032;-77
2022/03/12 15:13:00;;;;;;;14.68;4.70;;;18.90;99.90;;;;;;4916733;29;20031;-77
2022/03/12 15:15:35;;;;;;;8.77;3.00;;;18.90;99.90;;;;;;4900046;29;20445;-76
2022/03/12 15:18:10;;;;;;;9.63;3.67;;;18.90;99.90;;;;;;4899919;29;20028;-75
2022/03/12 15:20:41;;;;;;;7.72;3.50;;;18.90;99.90;;;;;;4899147;29;20055;-76
2022/03/12 15:23:16;;;;;;;9.27;3.57;;;18.90;99.90;;;;;;4899212;29;20024;-76
2022/03/12 15:25:54;;;;;;;8.02;4.03;;;19.00;99.90;;;;;;4916623;29;20275;-76
2022/03/12 15:28:24;;;;;;;9.77;3.78;;;19.10;99.90;;;;;;4916741;29;20105;-77
2022/03/12 15:30:59;;;;;;;11.35;3.80;;;19.10;99.90;;;;;;4916377;29;20152;-76
2022/03/12 15:33:36;;;;;;;8.85;3.42;;;19.20;99.90;;;;;;4916233;29;20017;-77
2022/03/12 15:36:16;;;;;;;7.75;3.63;;;19.20;99.90;;;;;;4915866;29;20461;-76
2022/03/12 15:39:00;;;;;;;9.05;3.03;;;19.10;99.90;;;;;;4916326;29;20090;-76
2022/03/12 15:41:30;;;;;;;13.45;3.47;;;19.20;99.90;;;;;;4916619;29;20024;-77
2022/03/12 15:44:02;;;;;;;7.90;2.67;;;19.30;99.90;;;;;;4916191;29;20123;-76
2022/03/12 15:46:31;;;;;;;9.75;3.03;;;19.30;99.90;;;;;;4916401;29;20385;-76
2022/03/12 15:48:59;;;;;;;6.63;2.72;;;19.40;99.90;;;;;;4915799;29;20028;-76
2022/03/12 15:51:30;;;;;;;11.57;3.03;;;19.40;99.90;;;;;;4915980;29;20028;-74
2022/03/12 15:53:59;;;;;;;10.25;3.95;;;19.40;99.90;;;;;;4916144;29;20079;-76
2022/03/12 15:56:29;;;;;;;6.93;3.45;;;19.40;99.90;;;;;;4915971;29;20033;-76
2022/03/12 15:58:57;;;;;;;16.25;3.90;;;19.40;99.90;;;;;;4916117;29;20032;-76
2022/03/12 16:01:24;;;;;;;9.65;3.13;;;19.50;99.90;;;;;;4916075;29;20537;-77
2022/03/12 16:03:52;;;;;;;8.20;3.17;;;19.50;99.90;;;;;;4916141;29;20135;-76
2022/03/12 16:06:19;;;;;;;7.35;2.63;;;19.40;99.90;;;;;;4898851;29;20043;-78
2022/03/12 16:08:47;;;;;;;7.95;2.92;;;19.30;99.90;;;;;;4915509;29;20036;-75
2022/03/12 16:11:14;;;;;;;5.38;2.97;;;19.20;99.90;;;;;;4915810;29;20028;-75
2022/03/12 16:13:41;;;;;;;8.35;3.75;;;19.20;99.90;;;;;;4915665;29;20111;-73
2022/03/12 16:16:15;;;;;;;9.25;3.22;;;19.10;99.90;;;;;;4915596;29;20028;-74
2022/03/12 16:18:45;;;;;;;8.50;3.03;;;19.10;99.90;;;;;;4915571;29;20384;-73
2022/03/12 16:21:12;;;;;;;7.70;2.53;;;19.10;99.90;;;;;;4915843;29;20044;-73
2022/03/12 16:23:40;;;;;;;17.15;3.75;;;19.10;99.90;;;;;;4915348;29;20028;-76
2022/03/12 16:26:07;;;;;;;10.88;3.28;;;19.00;99.90;;;;;;4915437;29;20024;-77
2022/03/12 16:28:35;;;;;;;9.55;3.30;;;19.00;99.90;;;;;;4915662;29;20353;-76
2022/03/12 16:31:03;;;;;;;8.43;3.65;;;19.00;99.90;;;;;;4915639;29;20036;-76
2022/03/12 16:33:30;;;;;;;9.43;3.38;;;19.00;99.90;;;;;;4915700;29;20035;-75
2022/03/12 16:36:02;;;;;;;8.38;3.35;;;19.00;99.90;;;;;;4915668;29;20039;-75
2022/03/12 16:38:34;;;;;;;10.23;3.40;;;19.00;99.90;;;;;;4898176;29;20036;-74
2022/03/12 16:41:02;;;;;;;7.13;3.22;;;19.10;99.90;;;;;;4915498;29;20079;-76
2022/03/12 16:43:32;;;;;;;8.95;2.95;;;19.10;99.90;;;;;;4915481;29;20020;-77
2022/03/12 16:46:02;;;;;;;9.75;3.03;;;19.00;99.90;;;;;;4898657;29;20032;-75
2022/03/12 16:48:30;;;;;;;7.22;3.00;;;19.00;99.90;;;;;;4915588;29;20103;-75
2022/03/12 16:50:58;;;;;;;12.85;3.10;;;19.00;99.90;;;;;;4898435;29;20082;-75
2022/03/12 16:53:25;;;;;;;11.45;3.20;;;19.00;99.90;;;;;;4915804;29;20024;-75
2022/03/12 16:55:52;;;;;;;7.80;3.13;;;18.90;99.90;;;;;;4915749;29;20031;-75
2022/03/12 16:58:20;;;;;;;7.63;3.60;;;18.90;99.90;;;;;;4915183;29;20099;-74
2022/03/12 17:00:47;;;;;;;9.93;3.65;;;18.80;99.90;;;;;;4915311;29;20043;-76
2022/03/12 17:03:16;;;;;;;6.07;2.90;;;18.80;99.90;;;;;;4915554;29;20031;-75
2022/03/12 17:05:47;;;;;;;7.50;3.20;;;18.70;99.90;;;;;;4898625;29;20040;-75
2022/03/12 17:08:17;;;;;;;9.75;3.63;;;18.70;99.90;;;;;;4918032;29;20119;-75
2022/03/12 17:10:48;;;;;;;6.90;2.92;;;18.80;99.90;;;;;;4919112;29;20028;-74
2022/03/12 17:13:15;;;;;;;12.38;2.90;;;18.70;99.90;;;;;;4918922;29;20059;-74
2022/03/12 17:15:44;;;;;;;7.35;3.22;;;18.70;99.90;;;;;;4902209;29;20075;-72
2022/03/12 17:18:12;;;;;;;10.88;2.80;;;18.80;99.90;;;;;;4919038;29;20096;-74
2022/03/12 17:20:39;;;;;;;8.48;3.67;;;18.70;99.90;;;;;;4918801;29;20055;-74
2022/03/12 17:23:08;;;;;;;11.88;3.45;;;18.70;99.90;;;;;;4919092;29;20024;-76
2022/03/12 17:25:35;;;;;;;11.82;2.95;;;18.70;99.90;;;;;;4918565;29;20136;-73
2022/03/12 17:28:05;;;;;;;11.25;3.85;;;18.70;99.90;;;;;;4918584;29;20076;-74
2022/03/12 17:30:34;;;;;;;8.57;3.40;;;18.60;99.90;;;;;;4901711;29;20426;-74
2022/03/12 17:33:04;;;;;;;8.80;2.95;;;18.60;99.90;;;;;;4918286;29;20072;-74
2022/03/12 17:35:34;;;;;;;13.07;3.55;;;18.60;99.90;;;;;;4918241;29;20021;-76
2022/03/12 17:38:07;;;;;;;13.35;3.45;;;18.60;99.90;;;;;;4918427;29;20040;-77
2022/03/12 17:40:36;;;;;;;13.32;3.33;;;18.60;99.90;;;;;;4918851;29;20106;-74
2022/03/12 17:43:05;;;;;;;8.07;3.53;;;18.60;99.90;;;;;;4918778;29;20035;-74
2022/03/12 17:45:33;;;;;;;8.57;3.30;;;18.70;99.90;;;;;;4918685;29;20091;-74
2022/03/12 17:48:07;;;;;;;8.13;3.38;;;18.70;99.90;;;;;;4918467;29;20531;-76
2022/03/12 17:50:36;;;;;;;9.13;3.30;;;18.70;99.90;;;;;;4918336;29;20028;-77
2022/03/12 17:53:05;;;;;;;7.18;2.85;;;18.70;99.90;;;;;;4918328;29;20093;-74
2022/03/12 17:55:33;;;;;;;10.35;3.28;;;18.70;99.90;;;;;;4918261;29;20032;-75
2022/03/12 17:58:02;;;;;;;9.73;3.38;;;18.70;99.90;;;;;;4918085;29;20020;-76
2022/03/12 18:00:31;;;;;;;8.45;3.33;;;18.80;99.90;;;;;;4918267;29;20024;-76
2022/03/12 18:02:59;;;;;;;6.55;2.58;;;18.80;99.90;;;;;;4917820;29;20076;-75
2022/03/12 18:05:30;;;;;;;6.13;2.53;;;18.80;99.90;;;;;;4917567;29;20068;-75
2022/03/12 18:07:59;;;;;;;9.50;2.20;;;18.80;99.90;;;;;;4917862;29;20469;-75
2022/03/12 18:10:32;;;;;;;6.97;2.55;;;18.80;99.90;;;;;;4901026;29;20032;-75
2022/03/12 18:13:00;;;;;;;10.57;3.22;;;18.80;99.90;;;;;;4917907;29;20103;-75
2022/03/12 18:15:29;;;;;;;8.95;3.45;;;18.80;99.90;;;;;;4917815;29;20047;-74
2022/03/12 18:17:57;;;;;;;6.57;3.08;;;18.70;99.90;;;;;;4917770;29;20488;-74
2022/03/12 18:20:27;;;;;;;7.78;3.10;;;18.80;99.90;;;;;;4917678;29;20560;-75